sensor_id;sensor_type;location;lat;lon;timestamp;pressure;altitude;pressure_sealevel;temperature;humidity
69749;BME280;57019;52.354;6.584;2022-12-11T00:01:49;101117.03;;;18.47;38.33
69749;BME280;57019;52.354;6.584;2022-12-11T00:04:14;101104.13;;;18.45;38.45
69749;BME280;57019;52.354;6.584;2022-12-11T00:06:39;101112.13;;;18.44;38.46
69749;BME280;57019;52.354;6.584;2022-12-11T00:09:06;101108.03;;;18.41;38.46
69749;BME280;57019;52.354;6.584;2022-12-11T00:11:31;101108.03;;;18.41;38.37
69749;BME280;57019;52.354;6.584;2022-12-11T00:13:57;101103.16;;;18.38;38.30
69749;BME280;57019;52.354;6.584;2022-12-11T00:16:22;101105.41;;;18.33;38.33
69749;BME280;57019;52.354;6.584;2022-12-11T00:18:47;101106.56;;;18.30;38.48
69749;BME280;57019;52.354;6.584;2022-12-11T00:21:13;101090.06;;;18.30;38.50
69749;BME280;57019;52.354;6.584;2022-12-11T00:23:40;101094.63;;;18.28;38.41
69749;BME280;57019;52.354;6.584;2022-12-11T00:26:12;101092.81;;;18.28;38.27
69749;BME280;57019;52.354;6.584;2022-12-11T00:28:38;101099.22;;;18.26;38.31
69749;BME280;57019;52.354;6.584;2022-12-11T00:31:08;101095.94;;;18.24;38.28
69749;BME280;57019;52.354;6.584;2022-12-11T00:33:36;101085.66;;;18.22;38.30
69749;BME280;57019;52.354;6.584;2022-12-11T00:36:01;101094.28;;;18.23;38.13
69749;BME280;57019;52.354;6.584;2022-12-11T00:38:26;101094.28;;;18.23;38.33
69749;BME280;57019;52.354;6.584;2022-12-11T00:40:52;101087.75;;;18.19;38.31
69749;BME280;57019;52.354;6.584;2022-12-11T00:43:17;101084.50;;;18.17;38.07
69749;BME280;57019;52.354;6.584;2022-12-11T00:45:44;101084.50;;;18.17;38.23
69749;BME280;57019;52.354;6.584;2022-12-11T00:48:12;101096.91;;;18.14;38.21
69749;BME280;57019;52.354;6.584;2022-12-11T00:50:37;101094.13;;;18.16;38.11
69749;BME280;57019;52.354;6.584;2022-12-11T00:53:04;101091.69;;;18.14;38.19
69749;BME280;57019;52.354;6.584;2022-12-11T00:55:29;101096.91;;;18.14;38.01
69749;BME280;57019;52.354;6.584;2022-12-11T00:57:56;101084.00;;;18.13;38.14
69749;BME280;57019;52.354;6.584;2022-12-11T01:00:23;101085.13;;;18.10;38.10
69749;BME280;57019;52.354;6.584;2022-12-11T01:02:48;101085.47;;;18.07;38.03
69749;BME280;57019;52.354;6.584;2022-12-11T01:05:14;101093.97;;;18.09;38.07
69749;BME280;57019;52.354;6.584;2022-12-11T01:07:39;101095.13;;;18.07;38.06
69749;BME280;57019;52.354;6.584;2022-12-11T01:10:05;101087.44;;;18.05;38.14
69749;BME280;57019;52.354;6.584;2022-12-11T01:12:57;101086.78;;;18.03;38.06
69749;BME280;57019;52.354;6.584;2022-12-11T01:15:25;101086.44;;;17.98;38.16
69749;BME280;57019;52.354;6.584;2022-12-11T01:17:51;101082.84;;;17.99;38.17
69749;BME280;57019;52.354;6.584;2022-12-11T01:20:18;101081.19;;;17.98;37.90
69749;BME280;57019;52.354;6.584;2022-12-11T01:22:44;101081.19;;;17.98;38.01
69749;BME280;57019;52.354;6.584;2022-12-11T01:25:09;101082.84;;;17.99;38.01
69749;BME280;57019;52.354;6.584;2022-12-11T01:27:36;101082.50;;;17.94;37.93
69749;BME280;57019;52.354;6.584;2022-12-11T01:30:02;101081.53;;;17.95;37.94
69749;BME280;57019;52.354;6.584;2022-12-11T01:32:28;101086.75;;;17.95;37.88
69749;BME280;57019;52.354;6.584;2022-12-11T01:34:53;101081.03;;;17.91;37.98
69749;BME280;57019;52.354;6.584;2022-12-11T01:37:19;101075.28;;;17.88;37.91
69749;BME280;57019;52.354;6.584;2022-12-11T01:39:44;101080.84;;;17.85;37.93
69749;BME280;57019;52.354;6.584;2022-12-11T01:42:16;101084.09;;;17.87;37.95
69749;BME280;57019;52.354;6.584;2022-12-11T01:47:07;101092.91;;;17.86;37.79
69749;BME280;57019;52.354;6.584;2022-12-11T01:49:32;101094.56;;;17.87;37.80
69749;BME280;57019;52.354;6.584;2022-12-11T01:52:04;101095.03;;;17.82;37.95
69749;BME280;57019;52.354;6.584;2022-12-11T01:54:30;101099.59;;;17.80;37.98
69749;BME280;57019;52.354;6.584;2022-12-11T01:56:59;101093.56;;;17.79;37.96
69749;BME280;57019;52.354;6.584;2022-12-11T01:59:30;101094.19;;;17.81;37.86
69749;BME280;57019;52.354;6.584;2022-12-11T02:02:02;101097.66;;;17.82;37.74
69749;BME280;57019;52.354;6.584;2022-12-11T02:04:30;101086.69;;;17.78;37.81
69749;BME280;57019;52.354;6.584;2022-12-11T02:06:57;101083.44;;;17.76;37.82
69749;BME280;57019;52.354;6.584;2022-12-11T02:09:26;101083.75;;;17.73;37.78
69749;BME280;57019;52.354;6.584;2022-12-11T02:11:59;101081.13;;;17.73;37.79
69749;BME280;57019;52.354;6.584;2022-12-11T02:17:13;101072.97;;;17.68;37.79
69749;BME280;57019;52.354;6.584;2022-12-11T02:20:04;101078.84;;;17.70;37.64
69749;BME280;57019;52.354;6.584;2022-12-11T02:22:57;101079.50;;;17.64;37.77
69749;BME280;57019;52.354;6.584;2022-12-11T02:25:36;101074.28;;;17.64;37.76
69749;BME280;57019;52.354;6.584;2022-12-11T02:33:50;101058.75;;;17.62;37.72
69749;BME280;57019;52.354;6.584;2022-12-11T02:36:20;101061.03;;;17.57;37.75
69749;BME280;57019;52.354;6.584;2022-12-11T02:38:49;101058.25;;;17.59;37.84
69749;BME280;57019;52.354;6.584;2022-12-11T02:41:17;101059.56;;;17.55;37.92
69749;BME280;57019;52.354;6.584;2022-12-11T02:43:44;101062.31;;;17.53;37.89
69749;BME280;57019;52.354;6.584;2022-12-11T02:46:13;101065.09;;;17.52;37.85
69749;BME280;57019;52.354;6.584;2022-12-11T02:48:40;101056.25;;;17.53;37.83
69749;BME280;57019;52.354;6.584;2022-12-11T02:51:08;101059.88;;;17.52;37.85
69749;BME280;57019;52.354;6.584;2022-12-11T02:53:36;101055.63;;;17.51;37.82
69749;BME280;57019;52.354;6.584;2022-12-11T02:56:16;101056.59;;;17.50;37.82
69749;BME280;57019;52.354;6.584;2022-12-11T02:58:54;101059.38;;;17.48;37.75
69749;BME280;57019;52.354;6.584;2022-12-11T03:01:20;101067.34;;;17.46;37.81
69749;BME280;57019;52.354;6.584;2022-12-11T03:03:46;101050.38;;;17.42;37.95
69749;BME280;57019;52.354;6.584;2022-12-11T03:06:15;101053.97;;;17.41;37.94
69749;BME280;57019;52.354;6.584;2022-12-11T03:08:42;101056.72;;;17.40;37.92
69749;BME280;57019;52.354;6.584;2022-12-11T03:11:11;101053.97;;;17.41;37.82
69749;BME280;57019;52.354;6.584;2022-12-11T03:13:39;101043.84;;;17.38;37.99
69749;BME280;57019;52.354;6.584;2022-12-11T03:16:23;101050.69;;;17.39;37.89
69749;BME280;57019;52.354;6.584;2022-12-11T03:24:50;101050.03;;;17.37;37.79
69749;BME280;57019;52.354;6.584;2022-12-11T03:29:56;101040.88;;;17.33;37.79
69749;BME280;57019;52.354;6.584;2022-12-11T03:32:26;101045.59;;;17.29;37.86
69749;BME280;57019;52.354;6.584;2022-12-11T03:35:00;101050.31;;;17.26;37.93
69749;BME280;57019;52.354;6.584;2022-12-11T03:37:30;101041.19;;;17.30;37.78
69749;BME280;57019;52.354;6.584;2022-12-11T03:40:00;101050.00;;;17.29;37.77
69749;BME280;57019;52.354;6.584;2022-12-11T03:42:28;101054.25;;;17.30;37.76
69749;BME280;57019;52.354;6.584;2022-12-11T03:44:54;101057.31;;;17.25;37.75
69749;BME280;57019;52.354;6.584;2022-12-11T03:47:22;101054.88;;;17.24;37.77
69749;BME280;57019;52.354;6.584;2022-12-11T03:49:50;101052.25;;;17.24;37.87
69749;BME280;57019;52.354;6.584;2022-12-11T03:52:17;101046.06;;;17.25;37.80
69749;BME280;57019;52.354;6.584;2022-12-11T03:54:45;101053.38;;;17.21;37.95
69749;BME280;57019;52.354;6.584;2022-12-11T03:57:13;101043.78;;;17.22;37.87
69749;BME280;57019;52.354;6.584;2022-12-11T03:59:40;101046.38;;;17.22;37.72
69749;BME280;57019;52.354;6.584;2022-12-11T04:02:06;101047.34;;;17.21;37.83
69749;BME280;57019;52.354;6.584;2022-12-11T04:04:39;101049.31;;;17.19;37.83
69749;BME280;57019;52.354;6.584;2022-12-11T04:07:05;101046.38;;;17.22;37.74
69749;BME280;57019;52.354;6.584;2022-12-11T04:09:31;101056.16;;;17.20;37.73
69749;BME280;57019;52.354;6.584;2022-12-11T04:11:57;101048.47;;;17.18;37.83
69749;BME280;57019;52.354;6.584;2022-12-11T04:14:22;101052.91;;;17.18;37.79
69749;BME280;57019;52.354;6.584;2022-12-11T04:17:06;101055.16;;;17.12;37.89
69749;BME280;57019;52.354;6.584;2022-12-11T04:19:32;101057.59;;;17.14;37.78
69749;BME280;57019;52.354;6.584;2022-12-11T04:22:17;101053.34;;;17.13;37.78
69749;BME280;57019;52.354;6.584;2022-12-11T04:25:04;101056.28;;;17.10;37.86
69749;BME280;57019;52.354;6.584;2022-12-11T04:27:29;101046.97;;;17.07;37.88
69749;BME280;57019;52.354;6.584;2022-12-11T04:30:17;101047.81;;;17.08;37.88
69749;BME280;57019;52.354;6.584;2022-12-11T04:32:43;101047.97;;;17.06;37.88
69749;BME280;57019;52.354;6.584;2022-12-11T04:35:09;101042.59;;;17.08;37.79
69749;BME280;57019;52.354;6.584;2022-12-11T04:37:36;101041.75;;;17.07;37.85
69749;BME280;57019;52.354;6.584;2022-12-11T04:40:03;101036.53;;;17.07;37.81
69749;BME280;57019;52.354;6.584;2022-12-11T04:42:29;101036.19;;;17.02;37.90
69749;BME280;57019;52.354;6.584;2022-12-11T04:44:54;101035.38;;;17.02;37.94
69749;BME280;57019;52.354;6.584;2022-12-11T04:47:20;101022.63;;;16.99;37.92
69749;BME280;57019;52.354;6.584;2022-12-11T04:49:45;101026.72;;;17.01;37.87
69749;BME280;57019;52.354;6.584;2022-12-11T04:52:10;101026.72;;;17.01;37.86
69749;BME280;57019;52.354;6.584;2022-12-11T04:54:36;101016.63;;;16.98;37.68
69749;BME280;57019;52.354;6.584;2022-12-11T04:57:01;101019.88;;;17.00;37.88
69749;BME280;57019;52.354;6.584;2022-12-11T04:59:26;101021.31;;;16.94;37.87
69749;BME280;57019;52.354;6.584;2022-12-11T05:01:52;101008.44;;;16.93;37.89
69749;BME280;57019;52.354;6.584;2022-12-11T05:04:17;101012.97;;;16.91;38.08
69749;BME280;57019;52.354;6.584;2022-12-11T05:06:42;101009.56;;;16.90;37.94
69749;BME280;57019;52.354;6.584;2022-12-11T05:09:11;101008.75;;;16.90;37.82
69749;BME280;57019;52.354;6.584;2022-12-11T05:11:37;101012.31;;;16.89;37.99
69749;BME280;57019;52.354;6.584;2022-12-11T05:14:03;101008.03;;;16.88;38.04
69749;BME280;57019;52.354;6.584;2022-12-11T05:16:28;101014.94;;;16.89;37.84
69749;BME280;57019;52.354;6.584;2022-12-11T05:18:53;101016.69;;;16.88;37.88
69749;BME280;57019;52.354;6.584;2022-12-11T05:21:19;101012.63;;;16.86;38.02
69749;BME280;57019;52.354;6.584;2022-12-11T05:23:44;101007.41;;;16.86;38.02
69749;BME280;57019;52.354;6.584;2022-12-11T05:26:15;101007.41;;;16.86;37.87
69749;BME280;57019;52.354;6.584;2022-12-11T05:28:41;101006.06;;;16.82;37.98
69749;BME280;57019;52.354;6.584;2022-12-11T05:31:11;101001.97;;;16.79;38.14
69749;BME280;57019;52.354;6.584;2022-12-11T05:33:37;100998.38;;;16.80;38.07
69749;BME280;57019;52.354;6.584;2022-12-11T05:36:02;101003.47;;;16.82;37.93
69749;BME280;57019;52.354;6.584;2022-12-11T05:38:28;101002.84;;;16.88;38.00
69749;BME280;57019;52.354;6.584;2022-12-11T05:43:21;101015.97;;;17.04;37.54
69749;BME280;57019;52.354;6.584;2022-12-11T05:45:46;101010.16;;;17.10;37.55
69749;BME280;57019;52.354;6.584;2022-12-11T05:48:12;101021.91;;;17.15;37.52
69749;BME280;57019;52.354;6.584;2022-12-11T05:50:37;101021.25;;;17.21;37.47
69749;BME280;57019;52.354;6.584;2022-12-11T05:53:02;101023.38;;;17.25;37.31
69749;BME280;57019;52.354;6.584;2022-12-11T05:55:29;101024.41;;;17.33;37.18
69749;BME280;57019;52.354;6.584;2022-12-11T05:57:57;101019.22;;;17.41;37.10
69749;BME280;57019;52.354;6.584;2022-12-11T06:00:23;101020.38;;;17.46;37.13
69749;BME280;57019;52.354;6.584;2022-12-11T06:02:48;101020.38;;;17.55;36.90
69749;BME280;57019;52.354;6.584;2022-12-11T06:05:13;101017.97;;;17.61;36.79
69749;BME280;57019;52.354;6.584;2022-12-11T06:07:39;101017.31;;;17.68;36.70
69749;BME280;57019;52.354;6.584;2022-12-11T06:10:04;101010.31;;;17.76;36.54
69749;BME280;57019;52.354;6.584;2022-12-11T06:12:30;101008.00;;;17.81;36.47
69749;BME280;57019;52.354;6.584;2022-12-11T06:14:56;101007.03;;;17.91;36.25
69749;BME280;57019;52.354;6.584;2022-12-11T06:17:21;101014.91;;;17.99;36.03
69749;BME280;57019;52.354;6.584;2022-12-11T06:19:46;101006.28;;;18.07;36.13
69749;BME280;57019;52.354;6.584;2022-12-11T06:22:12;101012.47;;;18.14;35.96
69749;BME280;57019;52.354;6.584;2022-12-11T06:24:37;101003.81;;;18.22;35.88
69749;BME280;57019;52.354;6.584;2022-12-11T06:27:02;101008.38;;;18.28;35.79
69749;BME280;57019;52.354;6.584;2022-12-11T06:29:28;101008.53;;;18.35;35.62
69749;BME280;57019;52.354;6.584;2022-12-11T06:31:53;101007.38;;;18.45;35.51
69749;BME280;57019;52.354;6.584;2022-12-11T06:34:18;101007.69;;;18.51;35.35
69749;BME280;57019;52.354;6.584;2022-12-11T06:36:44;101006.69;;;18.60;35.24
69749;BME280;57019;52.354;6.584;2022-12-11T06:39:09;101001.13;;;18.63;35.27
69749;BME280;57019;52.354;6.584;2022-12-11T06:41:34;101001.09;;;18.71;35.10
69749;BME280;57019;52.354;6.584;2022-12-11T06:44:00;101003.84;;;18.78;35.00
69749;BME280;57019;52.354;6.584;2022-12-11T06:46:25;101002.69;;;18.80;35.14
69749;BME280;57019;52.354;6.584;2022-12-11T06:48:50;101001.72;;;18.90;34.70
69749;BME280;57019;52.354;6.584;2022-12-11T06:51:18;101009.88;;;18.95;34.76
69749;BME280;57019;52.354;6.584;2022-12-11T06:53:44;100998.44;;;18.96;34.78
69749;BME280;57019;52.354;6.584;2022-12-11T06:56:12;101005.25;;;19.05;34.73
69749;BME280;57019;52.354;6.584;2022-12-11T06:58:39;100997.06;;;19.08;34.56
69749;BME280;57019;52.354;6.584;2022-12-11T07:01:13;100995.75;;;19.12;34.51
69749;BME280;57019;52.354;6.584;2022-12-11T07:03:39;101000.59;;;19.24;34.27
69749;BME280;57019;52.354;6.584;2022-12-11T07:06:04;101002.50;;;19.30;34.31
69749;BME280;57019;52.354;6.584;2022-12-11T07:08:30;101006.25;;;19.36;34.55
69749;BME280;57019;52.354;6.584;2022-12-11T07:11:05;101006.19;;;19.44;34.14
69749;BME280;57019;52.354;6.584;2022-12-11T07:13:30;101004.41;;;19.44;34.27
69749;BME280;57019;52.354;6.584;2022-12-11T07:15:57;101006.38;;;19.42;34.06
69749;BME280;57019;52.354;6.584;2022-12-11T07:18:24;101003.13;;;19.40;34.25
69749;BME280;57019;52.354;6.584;2022-12-11T07:20:49;101015.72;;;19.37;34.19
69749;BME280;57019;52.354;6.584;2022-12-11T07:23:15;101015.44;;;19.31;34.57
69749;BME280;57019;52.354;6.584;2022-12-11T07:25:40;101024.34;;;19.22;34.41
69749;BME280;57019;52.354;6.584;2022-12-11T07:28:06;101020.91;;;19.13;34.74
69749;BME280;57019;52.354;6.584;2022-12-11T07:30:31;101020.28;;;19.11;34.87
69749;BME280;57019;52.354;6.584;2022-12-11T07:32:56;101019.00;;;19.07;34.96
69749;BME280;57019;52.354;6.584;2022-12-11T07:35:22;101019.16;;;19.06;34.93
69749;BME280;57019;52.354;6.584;2022-12-11T07:37:47;101020.78;;;19.07;34.90
69749;BME280;57019;52.354;6.584;2022-12-11T07:40:12;101022.25;;;19.09;34.71
69749;BME280;57019;52.354;6.584;2022-12-11T07:42:38;101023.53;;;19.13;34.76
69749;BME280;57019;52.354;6.584;2022-12-11T07:45:03;101035.59;;;19.23;34.62
69749;BME280;57019;52.354;6.584;2022-12-11T07:47:29;101034.28;;;19.27;34.51
69749;BME280;57019;52.354;6.584;2022-12-11T07:49:54;101039.50;;;19.27;34.49
69749;BME280;57019;52.354;6.584;2022-12-11T07:52:20;101040.31;;;19.27;34.63
69749;BME280;57019;52.354;6.584;2022-12-11T07:54:46;101036.72;;;19.28;34.76
69749;BME280;57019;52.354;6.584;2022-12-11T07:57:11;101041.16;;;19.28;34.74
69749;BME280;57019;52.354;6.584;2022-12-11T07:59:36;101044.75;;;19.27;34.65
69749;BME280;57019;52.354;6.584;2022-12-11T08:02:02;101044.59;;;19.20;34.77
69749;BME280;57019;52.354;6.584;2022-12-11T08:04:27;101043.66;;;19.13;35.02
69749;BME280;57019;52.354;6.584;2022-12-11T08:06:52;101033.06;;;19.06;35.18
69749;BME280;57019;52.354;6.584;2022-12-11T08:09:18;101037.97;;;19.01;35.31
69749;BME280;57019;52.354;6.584;2022-12-11T08:11:50;101034.41;;;18.94;35.46
69749;BME280;57019;52.354;6.584;2022-12-11T08:14:16;101034.09;;;18.89;35.52
69749;BME280;57019;52.354;6.584;2022-12-11T08:16:41;101027.25;;;18.79;35.83
69749;BME280;57019;52.354;6.584;2022-12-11T08:19:09;101027.56;;;18.76;35.75
69749;BME280;57019;52.354;6.584;2022-12-11T08:21:34;101027.56;;;18.76;35.78
69749;BME280;57019;52.354;6.584;2022-12-11T08:24:00;101021.34;;;18.77;35.74
69749;BME280;57019;52.354;6.584;2022-12-11T08:26:27;101024.94;;;18.76;35.88
69749;BME280;57019;52.354;6.584;2022-12-11T08:28:54;101017.41;;;18.81;35.76
69749;BME280;57019;52.354;6.584;2022-12-11T08:31:20;101018.06;;;18.84;35.62
69749;BME280;57019;52.354;6.584;2022-12-11T08:33:46;101025.09;;;18.91;35.58
69749;BME280;57019;52.354;6.584;2022-12-11T08:36:15;101022.00;;;18.96;35.21
69749;BME280;57019;52.354;6.584;2022-12-11T08:38:41;101011.81;;;19.01;35.25
69749;BME280;57019;52.354;6.584;2022-12-11T08:41:15;101020.16;;;19.05;35.23
69749;BME280;57019;52.354;6.584;2022-12-11T08:43:41;101025.38;;;19.05;35.06
69749;BME280;57019;52.354;6.584;2022-12-11T08:46:07;101022.94;;;19.03;35.07
69749;BME280;57019;52.354;6.584;2022-12-11T08:48:34;101018.84;;;19.01;35.08
69749;BME280;57019;52.354;6.584;2022-12-11T08:51:01;101016.09;;;18.94;35.24
69749;BME280;57019;52.354;6.584;2022-12-11T08:53:30;101018.41;;;18.89;35.16
69749;BME280;57019;52.354;6.584;2022-12-11T08:56:02;101019.22;;;18.81;35.25
69749;BME280;57019;52.354;6.584;2022-12-11T08:58:28;101027.56;;;18.76;35.36
69749;BME280;57019;52.354;6.584;2022-12-11T09:00:54;101025.47;;;18.72;35.40
69749;BME280;57019;52.354;6.584;2022-12-11T09:03:19;101021.53;;;18.68;35.50
69749;BME280;57019;52.354;6.584;2022-12-11T09:05:45;101023.34;;;18.67;35.76
69749;BME280;57019;52.354;6.584;2022-12-11T09:08:10;101019.41;;;18.71;35.76
69749;BME280;57019;52.354;6.584;2022-12-11T09:10:35;101020.72;;;18.75;35.46
69749;BME280;57019;52.354;6.584;2022-12-11T09:13:01;101020.84;;;18.82;35.28
69749;BME280;57019;52.354;6.584;2022-12-11T09:15:26;101018.72;;;18.94;35.48
69749;BME280;57019;52.354;6.584;2022-12-11T09:17:51;101020.34;;;18.95;35.60
69749;BME280;57019;52.354;6.584;2022-12-11T09:20:17;101019.34;;;19.04;35.64
69749;BME280;57019;52.354;6.584;2022-12-11T09:22:42;101024.22;;;19.07;35.88
69749;BME280;57019;52.354;6.584;2022-12-11T09:25:08;101020.91;;;19.13;36.18
69749;BME280;57019;52.354;6.584;2022-12-11T09:27:33;101016.34;;;19.15;36.23
69749;BME280;57019;52.354;6.584;2022-12-11T09:29:59;101008.31;;;19.17;36.23
69749;BME280;57019;52.354;6.584;2022-12-11T09:32:25;101008.66;;;19.14;36.37
69749;BME280;57019;52.354;6.584;2022-12-11T09:34:50;101013.06;;;19.13;36.66
69749;BME280;57019;52.354;6.584;2022-12-11T09:37:16;101010.47;;;19.05;36.81
69749;BME280;57019;52.354;6.584;2022-12-11T09:39:41;101009.53;;;18.98;37.01
69749;BME280;57019;52.354;6.584;2022-12-11T09:44:43;101013.16;;;18.89;37.05
69749;BME280;57019;52.354;6.584;2022-12-11T09:47:33;101012.50;;;18.87;37.11
69749;BME280;57019;52.354;6.584;2022-12-11T09:50:11;101005.63;;;18.86;37.12
69749;BME280;57019;52.354;6.584;2022-12-11T09:55:42;101015.28;;;18.93;37.39
69749;BME280;57019;52.354;6.584;2022-12-11T10:00:47;101013.75;;;19.07;37.32
69749;BME280;57019;52.354;6.584;2022-12-11T10:18:44;101021.44;;;19.09;37.38
69749;BME280;57019;52.354;6.584;2022-12-11T10:21:09;101024.56;;;19.04;37.64
69749;BME280;57019;52.354;6.584;2022-12-11T10:23:45;101012.50;;;18.95;37.53
69749;BME280;57019;52.354;6.584;2022-12-11T10:26:19;101023.94;;;18.94;37.79
69749;BME280;57019;52.354;6.584;2022-12-11T10:28:45;101024.91;;;18.93;37.96
69749;BME280;57019;52.354;6.584;2022-12-11T10:34:02;101018.72;;;18.94;37.91
69749;BME280;57019;52.354;6.584;2022-12-11T10:36:29;101022.44;;;18.99;37.92
69749;BME280;57019;52.354;6.584;2022-12-11T10:38:54;101013.94;;;19.06;37.67
69749;BME280;57019;52.354;6.584;2022-12-11T10:41:23;101013.75;;;19.07;37.85
69749;BME280;57019;52.354;6.584;2022-12-11T10:43:51;101001.78;;;19.13;37.49
69749;BME280;57019;52.354;6.584;2022-12-11T10:46:21;101004.38;;;19.21;37.54
69749;BME280;57019;52.354;6.584;2022-12-11T10:48:52;100998.31;;;19.21;37.39
69749;BME280;57019;52.354;6.584;2022-12-11T10:51:18;100997.84;;;19.17;37.44
69749;BME280;57019;52.354;6.584;2022-12-11T10:53:52;100984.94;;;19.15;37.67
69749;BME280;57019;52.354;6.584;2022-12-11T10:56:28;100994.91;;;19.12;37.70
69749;BME280;57019;52.354;6.584;2022-12-11T10:58:56;100994.47;;;19.08;37.83
69749;BME280;57019;52.354;6.584;2022-12-11T11:01:25;100999.56;;;19.02;37.91
69749;BME280;57019;52.354;6.584;2022-12-11T11:06:28;100994.19;;;18.95;38.21
69749;BME280;57019;52.354;6.584;2022-12-11T11:08:56;100988.44;;;18.99;38.27
69749;BME280;57019;52.354;6.584;2022-12-11T11:11:30;100991.22;;;18.98;38.11
69749;BME280;57019;52.354;6.584;2022-12-11T11:14:18;100993.50;;;19.01;37.92
69749;BME280;57019;52.354;6.584;2022-12-11T11:16:46;100989.22;;;19.08;37.90
69749;BME280;57019;52.354;6.584;2022-12-11T11:19:24;100993.59;;;19.16;38.52
69749;BME280;57019;52.354;6.584;2022-12-11T11:21:54;100990.56;;;19.27;38.65
69749;BME280;57019;52.354;6.584;2022-12-11T11:24:28;100989.25;;;19.31;38.62
69749;BME280;57019;52.354;6.584;2022-12-11T11:26:55;100988.56;;;19.38;38.85
69749;BME280;57019;52.354;6.584;2022-12-11T11:29:25;100987.91;;;19.36;38.65
69749;BME280;57019;52.354;6.584;2022-12-11T11:31:53;100983.88;;;19.33;38.76
69749;BME280;57019;52.354;6.584;2022-12-11T11:34:19;100981.91;;;19.27;38.69
69749;BME280;57019;52.354;6.584;2022-12-11T11:36:57;100980.63;;;19.23;38.74
69749;BME280;57019;52.354;6.584;2022-12-11T11:42:07;100984.44;;;19.12;39.07
69749;BME280;57019;52.354;6.584;2022-12-11T11:44:42;100978.75;;;19.08;39.08
69749;BME280;57019;52.354;6.584;2022-12-11T11:47:18;100975.16;;;19.01;39.13
69749;BME280;57019;52.354;6.584;2022-12-11T11:49:52;100975.63;;;19.13;39.00
69749;BME280;57019;52.354;6.584;2022-12-11T11:52:42;100973.31;;;19.18;39.14
69749;BME280;57019;52.354;6.584;2022-12-11T11:55:26;100970.56;;;19.11;38.77
69749;BME280;57019;52.354;6.584;2022-12-11T11:58:04;100966.81;;;19.06;38.98
69749;BME280;57019;52.354;6.584;2022-12-11T12:00:31;100964.53;;;19.03;39.03
69749;BME280;57019;52.354;6.584;2022-12-11T12:03:00;100967.19;;;18.94;38.88
69749;BME280;57019;52.354;6.584;2022-12-11T12:05:34;100962.78;;;18.95;39.02
69749;BME280;57019;52.354;6.584;2022-12-11T12:16:48;100961.88;;;19.11;38.23
69749;BME280;57019;52.354;6.584;2022-12-11T12:21:51;100967.53;;;19.23;38.05
69749;BME280;57019;52.354;6.584;2022-12-11T12:30:07;100961.63;;;19.29;37.74
69749;BME280;57019;52.354;6.584;2022-12-11T12:35:37;100959.69;;;19.23;37.66
69749;BME280;57019;52.354;6.584;2022-12-11T12:40:41;100965.94;;;19.13;37.58
69749;BME280;57019;52.354;6.584;2022-12-11T12:47:07;100954.19;;;19.09;37.50
69749;BME280;57019;52.354;6.584;2022-12-11T12:52:37;100955.16;;;19.17;37.36
69749;BME280;57019;52.354;6.584;2022-12-11T12:57:49;100960.97;;;19.27;37.11
69749;BME280;57019;52.354;6.584;2022-12-11T13:02:51;100965.19;;;19.36;36.79
69749;BME280;57019;52.354;6.584;2022-12-11T13:05:26;100967.16;;;19.34;36.77
69749;BME280;57019;52.354;6.584;2022-12-11T13:07:55;100966.69;;;19.30;37.08
69749;BME280;57019;52.354;6.584;2022-12-11T13:10:36;100969.00;;;19.25;37.00
69749;BME280;57019;52.354;6.584;2022-12-11T13:13:04;100960.03;;;19.20;37.12
69749;BME280;57019;52.354;6.584;2022-12-11T13:15:41;100961.56;;;19.14;37.08
69749;BME280;57019;52.354;6.584;2022-12-11T13:18:34;100960.44;;;19.08;37.17
69749;BME280;57019;52.354;6.584;2022-12-11T13:21:01;100961.41;;;19.07;37.24
69749;BME280;57019;52.354;6.584;2022-12-11T13:23:32;100949.97;;;19.08;37.00
69749;BME280;57019;52.354;6.584;2022-12-11T13:26:28;100952.91;;;19.05;36.94
69749;BME280;57019;52.354;6.584;2022-12-11T13:28:54;100954.84;;;19.11;36.89
69749;BME280;57019;52.354;6.584;2022-12-11T13:33:51;100956.44;;;19.21;36.81
69749;BME280;57019;52.354;6.584;2022-12-11T13:38:48;100961.59;;;19.37;36.48
69749;BME280;57019;52.354;6.584;2022-12-11T13:41:17;100968.25;;;19.40;36.37
69749;BME280;57019;52.354;6.584;2022-12-11T13:43:44;100973.34;;;19.41;36.08
69749;BME280;57019;52.354;6.584;2022-12-11T13:46:12;100967.63;;;19.38;36.35
69749;BME280;57019;52.354;6.584;2022-12-11T13:48:45;100964.69;;;19.32;36.41
69749;BME280;57019;52.354;6.584;2022-12-11T13:51:17;100965.41;;;19.26;36.66
69749;BME280;57019;52.354;6.584;2022-12-11T13:53:42;100962.31;;;19.23;36.71
69749;BME280;57019;52.354;6.584;2022-12-11T13:56:19;100962.00;;;19.18;36.55
69749;BME280;57019;52.354;6.584;2022-12-11T13:58:45;100962.72;;;19.11;36.62
69749;BME280;57019;52.354;6.584;2022-12-11T14:01:22;100959.44;;;19.09;36.64
69749;BME280;57019;52.354;6.584;2022-12-11T14:04:02;100963.72;;;19.02;37.01
69749;BME280;57019;52.354;6.584;2022-12-11T14:06:29;100963.72;;;19.02;37.01
69749;BME280;57019;52.354;6.584;2022-12-11T14:08:58;100971.22;;;19.05;37.00
69749;BME280;57019;52.354;6.584;2022-12-11T14:11:40;100959.56;;;19.16;37.00
69749;BME280;57019;52.354;6.584;2022-12-11T14:14:19;100956.59;;;19.19;37.22
69749;BME280;57019;52.354;6.584;2022-12-11T14:16:48;100964.41;;;19.27;36.85
69749;BME280;57019;52.354;6.584;2022-12-11T14:19:16;100965.19;;;19.36;36.82
69749;BME280;57019;52.354;6.584;2022-12-11T14:21:54;100966.47;;;19.40;36.68
69749;BME280;57019;52.354;6.584;2022-12-11T14:24:19;100968.56;;;19.45;36.61
69749;BME280;57019;52.354;6.584;2022-12-11T14:26:49;100960.88;;;19.43;36.76
69749;BME280;57019;52.354;6.584;2022-12-11T14:29:24;100965.47;;;19.41;36.86
69749;BME280;57019;52.354;6.584;2022-12-11T14:31:50;100956.34;;;19.37;37.12